Time;durP1;ratioP1;P1;durP2;ratioP2;P2;SDS_P1;SDS_P2;PMS_P1;PMS_P2;Temp;Humidity;BMP_temperature;BMP_pressure;BME280_temperature;BME280_humidity;BME280_pressure;Samples;Min_cycle;Max_cycle;Signal;HPM_P1;HPM_P2
2022/02/28 00:00:33;;;;;;;19.70;9.00;;;;;;;;;;5049960;28;20078;-60
2022/02/28 00:02:59;;;;;;;21.08;9.45;;;;;;;;;;5068235;28;20051;-60
2022/02/28 00:05:25;;;;;;;22.15;9.43;;;;;;;;;;5068009;28;20472;-60
2022/02/28 00:07:51;;;;;;;18.92;9.35;;;;;;;;;;5067832;28;20523;-59
2022/02/28 00:10:18;;;;;;;19.70;9.50;;;;;;;;;;5067987;28;20021;-61
2022/02/28 00:12:44;;;;;;;23.25;9.77;;;;;;;;;;5068200;28;20027;-60
2022/02/28 00:15:11;;;;;;;22.33;10.25;;;;;;;;;;5068187;28;20024;-60
2022/02/28 00:17:38;;;;;;;27.20;9.68;;;;;;;;;;5068076;28;20299;-60
2022/02/28 00:20:05;;;;;;;23.98;9.65;;;;;;;;;;5061034;28;20028;-55
2022/02/28 00:22:32;;;;;;;24.80;9.88;;;;;;;;;;5053246;28;20108;-59
2022/02/28 00:24:58;;;;;;;21.52;9.77;;;;;;;;;;5049839;28;20035;-57
2022/02/28 00:27:24;;;;;;;22.00;10.55;;;;;;;;;;5067870;28;20025;-60
2022/02/28 00:29:50;;;;;;;23.25;10.82;;;;;;;;;;5068259;28;20104;-59
2022/02/28 00:32:16;;;;;;;23.30;10.18;;;;;;;;;;5068431;28;20051;-58
2022/02/28 00:34:42;;;;;;;19.80;9.77;;;;;;;;;;5068006;28;20481;-57
2022/02/28 00:37:08;;;;;;;23.30;10.55;;;;;;;;;;5068249;28;20055;-59
2022/02/28 00:39:35;;;;;;;31.80;11.68;;;;;;;;;;5052664;28;20084;-55
2022/02/28 00:42:01;;;;;;;21.40;9.93;;;;;;;;;;5032007;28;20091;-53
2022/02/28 00:44:27;;;;;;;19.92;9.70;;;;;;;;;;5053867;28;20017;-49
2022/02/28 00:46:53;;;;;;;21.35;10.25;;;;;;;;;;5054646;28;20032;-53
2022/02/28 00:49:19;;;;;;;21.02;9.68;;;;;;;;;;5054743;28;20019;-52
2022/02/28 00:51:45;;;;;;;22.38;9.73;;;;;;;;;;5054778;28;20035;-52
2022/02/28 00:54:12;;;;;;;19.88;8.70;;;;;;;;;;5054633;28;20021;-48
2022/02/28 00:56:38;;;;;;;24.23;11.90;;;;;;;;;;5054720;28;20025;-49
2022/02/28 00:59:03;;;;;;;26.05;9.90;;;;;;;;;;5054515;28;20115;-54
2022/02/28 01:01:29;;;;;;;21.98;9.73;;;;;;;;;;5036561;28;20123;-48
2022/02/28 01:03:56;;;;;;;21.63;10.18;;;;;;;;;;5054403;28;20035;-49
2022/02/28 01:06:22;;;;;;;21.70;10.70;;;;;;;;;;5054418;28;20385;-49
2022/02/28 01:08:48;;;;;;;26.10;9.27;;;;;;;;;;5054445;28;20029;-50
2022/02/28 01:11:14;;;;;;;20.67;8.98;;;;;;;;;;5054450;28;20475;-48
2022/02/28 01:13:40;;;;;;;22.63;9.63;;;;;;;;;;5054306;28;20096;-53
2022/02/28 01:16:06;;;;;;;22.35;9.88;;;;;;;;;;5053955;28;20029;-52
2022/02/28 01:18:32;;;;;;;22.10;10.35;;;;;;;;;;5054186;28;20029;-51
2022/02/28 01:20:58;;;;;;;22.63;9.65;;;;;;;;;;5054016;28;20025;-52
2022/02/28 01:23:24;;;;;;;20.30;9.23;;;;;;;;;;5054669;28;20033;-53
2022/02/28 01:25:50;;;;;;;20.92;9.68;;;;;;;;;;5054663;28;20421;-52
2022/02/28 01:28:16;;;;;;;23.08;9.05;;;;;;;;;;5054619;28;20029;-50
2022/02/28 01:30:43;;;;;;;21.75;9.07;;;;;;;;;;5054705;28;20028;-52
2022/02/28 01:33:09;;;;;;;21.15;9.43;;;;;;;;;;5054324;28;20023;-50
2022/02/28 01:35:34;;;;;;;25.65;10.27;;;;;;;;;;5054178;28;20107;-49
2022/02/28 01:38:00;;;;;;;22.83;10.63;;;;;;;;;;5054254;28;20104;-53
2022/02/28 01:40:28;;;;;;;22.52;9.52;;;;;;;;;;5053891;28;20444;-49
2022/02/28 01:42:54;;;;;;;19.00;9.13;;;;;;;;;;5036134;28;20052;-49
2022/02/28 01:45:23;;;;;;;20.05;10.00;;;;;;;;;;5053608;28;20060;-48
2022/02/28 01:47:53;;;;;;;20.23;10.05;;;;;;;;;;5053922;28;20039;-51
2022/02/28 01:50:20;;;;;;;21.17;10.32;;;;;;;;;;5054434;28;20025;-51
2022/02/28 01:52:48;;;;;;;26.58;10.60;;;;;;;;;;5054521;28;20100;-51
2022/02/28 01:55:17;;;;;;;23.20;10.20;;;;;;;;;;5054948;28;20024;-55
2022/02/28 01:57:43;;;;;;;26.08;10.13;;;;;;;;;;5055665;28;20393;-51
2022/02/28 02:00:14;;;;;;;21.63;9.43;;;;;;;;;;5054521;28;20474;-50
2022/02/28 02:02:42;;;;;;;22.90;9.98;;;;;;;;;;5054744;28;20035;-52
2022/02/28 02:05:08;;;;;;;22.42;9.75;;;;;;;;;;5053788;28;20021;-51
2022/02/28 02:07:34;;;;;;;22.90;9.23;;;;;;;;;;5053698;28;20026;-50
2022/02/28 02:10:02;;;;;;;22.48;11.02;;;;;;;;;;5053548;28;20017;-48
2022/02/28 02:12:29;;;;;;;27.85;10.73;;;;;;;;;;5053567;28;20132;-49
2022/02/28 02:14:55;;;;;;;21.45;10.80;;;;;;;;;;5053146;28;20114;-51
2022/02/28 02:17:21;;;;;;;20.70;9.25;;;;;;;;;;5053164;28;20029;-48
2022/02/28 02:19:47;;;;;;;27.00;11.70;;;;;;;;;;5053207;28;20461;-51
2022/02/28 02:22:14;;;;;;;23.80;9.88;;;;;;;;;;5052962;28;20527;-53
2022/02/28 02:24:40;;;;;;;23.38;10.73;;;;;;;;;;5053133;28;20465;-50
2022/02/28 02:27:06;;;;;;;21.20;10.52;;;;;;;;;;5053409;28;20025;-52
2022/02/28 02:29:39;;;;;;;22.63;10.32;;;;;;;;;;5053058;28;20025;-52
2022/02/28 02:32:13;;;;;;;19.65;9.65;;;;;;;;;;5052972;28;20029;-51
2022/02/28 02:34:39;;;;;;;21.30;10.00;;;;;;;;;;5052583;28;20036;-53
2022/02/28 02:37:05;;;;;;;25.00;10.43;;;;;;;;;;5052834;28;20045;-51
2022/02/28 02:39:31;;;;;;;23.40;10.30;;;;;;;;;;5052792;28;20116;-48
2022/02/28 02:41:57;;;;;;;24.27;9.68;;;;;;;;;;5052810;28;20075;-49
2022/02/28 02:44:33;;;;;;;24.52;10.27;;;;;;;;;;5052710;28;20102;-54
2022/02/28 02:46:59;;;;;;;23.35;9.90;;;;;;;;;;5052771;28;20497;-55
2022/02/28 02:49:25;;;;;;;25.70;11.25;;;;;;;;;;5052843;28;20473;-51
2022/02/28 02:51:51;;;;;;;23.30;10.55;;;;;;;;;;5053011;28;20044;-54
2022/02/28 02:54:17;;;;;;;23.77;10.15;;;;;;;;;;5053063;28;20036;-50
2022/02/28 02:56:43;;;;;;;22.17;10.35;;;;;;;;;;5052896;28;20028;-50
2022/02/28 02:59:09;;;;;;;25.33;10.43;;;;;;;;;;5052960;28;20029;-50
2022/02/28 03:01:35;;;;;;;22.27;10.15;;;;;;;;;;5053085;28;20032;-48
2022/02/28 03:04:01;;;;;;;26.88;10.55;;;;;;;;;;5035001;28;20401;-50
2022/02/28 03:06:27;;;;;;;25.88;11.00;;;;;;;;;;5052961;28;20025;-50
2022/02/28 03:08:54;;;;;;;23.50;10.65;;;;;;;;;;5052251;28;20029;-51
2022/02/28 03:11:20;;;;;;;23.10;10.52;;;;;;;;;;5052422;28;20028;-49
2022/02/28 03:13:46;;;;;;;20.70;9.88;;;;;;;;;;5052643;28;20025;-51
2022/02/28 03:16:12;;;;;;;22.05;10.50;;;;;;;;;;5052794;28;20056;-53
2022/02/28 03:18:38;;;;;;;23.92;10.90;;;;;;;;;;5034418;28;20021;-50
2022/02/28 03:21:04;;;;;;;23.23;10.57;;;;;;;;;;5052640;28;20025;-50
2022/02/28 03:23:33;;;;;;;23.27;10.98;;;;;;;;;;5052551;28;20017;-50
2022/02/28 03:25:59;;;;;;;23.27;10.45;;;;;;;;;;5052398;28;20017;-50
2022/02/28 03:28:25;;;;;;;23.33;10.52;;;;;;;;;;5052585;28;20075;-48
2022/02/28 03:30:51;;;;;;;22.13;9.90;;;;;;;;;;5052384;28;20067;-49
2022/02/28 03:33:17;;;;;;;24.48;11.95;;;;;;;;;;5034752;28;20029;-50
2022/02/28 03:35:43;;;;;;;23.08;10.55;;;;;;;;;;5052324;28;20021;-52
2022/02/28 03:38:09;;;;;;;21.70;10.70;;;;;;;;;;5052135;28;20029;-50
2022/02/28 03:40:35;;;;;;;23.30;11.00;;;;;;;;;;5052032;28;20363;-49
2022/02/28 03:43:05;;;;;;;24.17;12.32;;;;;;;;;;5051928;28;20032;-49
2022/02/28 03:45:31;;;;;;;24.02;11.40;;;;;;;;;;5051918;28;20017;-48
2022/02/28 03:47:57;;;;;;;24.48;11.10;;;;;;;;;;5052124;28;20220;-49
2022/02/28 03:50:24;;;;;;;22.88;11.25;;;;;;;;;;5033747;28;20104;-48
2022/02/28 03:52:51;;;;;;;25.85;11.60;;;;;;;;;;5051780;28;20044;-53
2022/02/28 03:55:17;;;;;;;24.42;11.43;;;;;;;;;;5051915;28;20272;-51
2022/02/28 03:57:43;;;;;;;22.92;11.23;;;;;;;;;;5052076;28;20045;-50
2022/02/28 04:00:09;;;;;;;23.30;11.57;;;;;;;;;;5051939;28;20060;-50
2022/02/28 04:02:35;;;;;;;23.08;11.88;;;;;;;;;;5033925;28;20074;-51
2022/02/28 04:05:01;;;;;;;22.98;11.65;;;;;;;;;;5052219;28;20068;-53
2022/02/28 04:07:27;;;;;;;24.33;11.77;;;;;;;;;;5052727;28;20021;-53
2022/02/28 04:09:53;;;;;;;23.70;11.38;;;;;;;;;;5052489;28;20036;-52
2022/02/28 04:12:19;;;;;;;23.35;10.98;;;;;;;;;;5052172;28;20029;-49
2022/02/28 04:14:46;;;;;;;24.40;11.40;;;;;;;;;;5051918;28;20101;-48
2022/02/28 04:17:12;;;;;;;24.45;11.80;;;;;;;;;;5052742;28;20086;-49
2022/02/28 04:19:38;;;;;;;25.35;11.82;;;;;;;;;;5055442;28;20032;-49
2022/02/28 04:22:04;;;;;;;28.90;12.93;;;;;;;;;;5055395;28;20025;-48
2022/02/28 04:24:30;;;;;;;22.20;11.05;;;;;;;;;;5055138;28;20078;-53
2022/02/28 04:26:57;;;;;;;196.98;98.13;;;;;;;;;;5055373;28;20025;-49
2022/02/28 04:29:23;;;;;;;151.35;80.93;;;;;;;;;;5036908;28;20439;-54
2022/02/28 04:31:49;;;;;;;66.68;35.90;;;;;;;;;;5055242;28;20028;-51
2022/02/28 04:34:15;;;;;;;41.35;22.75;;;;;;;;;;5055149;28;20025;-49
2022/02/28 04:36:41;;;;;;;36.10;18.67;;;;;;;;;;5055046;28;20039;-51
2022/02/28 04:39:07;;;;;;;40.22;20.80;;;;;;;;;;5054986;28;20543;-53
2022/02/28 04:41:33;;;;;;;32.42;15.30;;;;;;;;;;5054982;28;20060;-50
2022/02/28 04:44:00;;;;;;;31.55;14.07;;;;;;;;;;5055181;28;20029;-50
2022/02/28 04:46:25;;;;;;;29.20;12.55;;;;;;;;;;5037051;28;20086;-50
2022/02/28 04:48:51;;;;;;;24.65;12.07;;;;;;;;;;5054324;28;20032;-48
2022/02/28 04:51:17;;;;;;;31.30;16.77;;;;;;;;;;5054809;28;20385;-52
2022/02/28 04:53:43;;;;;;;38.65;21.08;;;;;;;;;;5054870;28;20032;-52
2022/02/28 04:56:09;;;;;;;24.25;12.32;;;;;;;;;;5037033;28;20056;-50
2022/02/28 04:58:35;;;;;;;28.58;12.85;;;;;;;;;;5054883;28;20025;-51
2022/02/28 05:01:01;;;;;;;26.50;10.75;;;;;;;;;;5054579;28;20473;-53
2022/02/28 05:03:27;;;;;;;25.35;12.48;;;;;;;;;;5054909;28;20021;-53
2022/02/28 05:05:53;;;;;;;25.00;12.80;;;;;;;;;;5054544;28;20394;-50
2022/02/28 05:08:19;;;;;;;22.42;11.43;;;;;;;;;;5054501;28;20147;-49
2022/02/28 05:10:45;;;;;;;23.90;11.63;;;;;;;;;;5036639;28;20021;-51
2022/02/28 05:13:12;;;;;;;22.42;10.77;;;;;;;;;;5054842;28;20032;-49
2022/02/28 05:15:38;;;;;;;22.92;11.73;;;;;;;;;;5054357;28;20025;-54
2022/02/28 05:18:04;;;;;;;25.45;12.18;;;;;;;;;;5054812;28;20083;-50
2022/02/28 05:20:30;;;;;;;23.75;12.20;;;;;;;;;;5054013;28;20025;-52
2022/02/28 05:22:56;;;;;;;22.50;11.82;;;;;;;;;;5054218;28;20021;-49
2022/02/28 05:25:22;;;;;;;26.83;14.30;;;;;;;;;;5036246;28;20028;-50
2022/02/28 05:27:48;;;;;;;24.58;12.15;;;;;;;;;;5053899;28;20367;-50
2022/02/28 05:30:15;;;;;;;23.05;12.27;;;;;;;;;;5052895;28;20512;-50
2022/02/28 05:32:42;;;;;;;22.35;12.45;;;;;;;;;;5053895;28;20111;-54
2022/02/28 05:35:09;;;;;;;27.17;11.70;;;;;;;;;;5054193;28;20033;-51
2022/02/28 05:37:35;;;;;;;23.73;11.60;;;;;;;;;;5054027;28;20029;-52
2022/02/28 05:40:01;;;;;;;25.98;13.38;;;;;;;;;;5053833;28;20047;-52
2022/02/28 05:42:27;;;;;;;27.35;13.57;;;;;;;;;;5053740;28;20021;-51
2022/02/28 05:44:53;;;;;;;31.17;12.98;;;;;;;;;;5053633;28;20021;-53
2022/02/28 05:47:19;;;;;;;24.25;12.90;;;;;;;;;;5053722;28;20083;-54
2022/02/28 05:49:45;;;;;;;26.83;14.18;;;;;;;;;;5035321;28;20124;-50
2022/02/28 05:52:11;;;;;;;24.55;11.90;;;;;;;;;;5053669;28;20077;-54
2022/02/28 05:54:37;;;;;;;27.38;12.75;;;;;;;;;;5053285;28;20106;-54
2022/02/28 05:57:04;;;;;;;36.50;14.13;;;;;;;;;;5053732;28;20049;-47
2022/02/28 05:59:30;;;;;;;27.38;13.23;;;;;;;;;;5055670;28;20083;-51
2022/02/28 06:01:56;;;;;;;25.98;12.30;;;;;;;;;;5055081;28;20037;-50
2022/02/28 06:04:22;;;;;;;25.40;13.55;;;;;;;;;;5036399;28;20025;-50
2022/02/28 06:06:48;;;;;;;25.73;13.07;;;;;;;;;;5053049;28;20044;-51
2022/02/28 06:09:14;;;;;;;23.30;13.30;;;;;;;;;;5053254;28;20056;-52
2022/02/28 06:11:40;;;;;;;26.48;13.93;;;;;;;;;;5035291;28;20503;-48
2022/02/28 06:14:06;;;;;;;26.60;14.10;;;;;;;;;;5053095;28;20025;-49
2022/02/28 06:16:32;;;;;;;29.95;15.18;;;;;;;;;;5053179;28;20032;-52
2022/02/28 06:18:59;;;;;;;26.95;14.15;;;;;;;;;;5052712;28;20025;-53
2022/02/28 06:21:25;;;;;;;24.13;12.85;;;;;;;;;;5052705;28;20091;-49
2022/02/28 06:23:51;;;;;;;29.75;15.25;;;;;;;;;;5052329;28;20457;-54
2022/02/28 06:26:17;;;;;;;29.05;13.75;;;;;;;;;;5052853;28;20068;-46
2022/02/28 06:28:43;;;;;;;27.95;14.35;;;;;;;;;;5053020;28;20289;-50
2022/02/28 06:31:09;;;;;;;27.88;14.32;;;;;;;;;;5034682;28;20033;-48
2022/02/28 06:33:35;;;;;;;27.52;13.95;;;;;;;;;;5052541;28;20090;-47
2022/02/28 06:36:01;;;;;;;25.10;12.55;;;;;;;;;;5052877;28;20041;-50
2022/02/28 06:38:27;;;;;;;27.60;14.45;;;;;;;;;;5052119;28;20571;-50
2022/02/28 06:40:53;;;;;;;31.40;13.50;;;;;;;;;;5034797;28;20056;-49
2022/02/28 06:43:21;;;;;;;24.75;13.48;;;;;;;;;;5051896;28;20032;-49
2022/02/28 06:45:47;;;;;;;24.80;12.77;;;;;;;;;;5051927;28;20025;-51
2022/02/28 06:48:13;;;;;;;28.90;12.90;;;;;;;;;;5051868;28;20044;-53
2022/02/28 06:50:39;;;;;;;25.77;13.20;;;;;;;;;;5051414;28;20021;-53
2022/02/28 06:53:05;;;;;;;28.13;12.60;;;;;;;;;;5051718;28;20021;-51
2022/02/28 06:55:31;;;;;;;27.80;13.52;;;;;;;;;;5051703;28;20036;-48
2022/02/28 06:57:57;;;;;;;25.00;12.38;;;;;;;;;;5051006;28;20033;-49
2022/02/28 07:00:23;;;;;;;30.33;14.50;;;;;;;;;;5050683;28;20029;-51
2022/02/28 07:02:49;;;;;;;28.10;11.70;;;;;;;;;;5051854;28;20035;-49
2022/02/28 07:05:15;;;;;;;29.52;15.02;;;;;;;;;;5051795;28;20096;-52
2022/02/28 07:07:41;;;;;;;25.17;12.55;;;;;;;;;;5051661;28;20029;-49
2022/02/28 07:10:10;;;;;;;27.85;12.18;;;;;;;;;;5033388;28;20074;-48
2022/02/28 07:12:36;;;;;;;31.45;14.07;;;;;;;;;;5051642;28;20091;-48
2022/02/28 07:15:03;;;;;;;27.83;13.45;;;;;;;;;;5051729;28;20025;-49
2022/02/28 07:17:29;;;;;;;26.42;11.55;;;;;;;;;;5051767;28;20021;-50
2022/02/28 07:19:55;;;;;;;24.83;12.05;;;;;;;;;;5051464;28;20117;-52
2022/02/28 07:22:21;;;;;;;25.52;12.43;;;;;;;;;;5051461;28;20512;-48
2022/02/28 07:24:47;;;;;;;23.92;11.52;;;;;;;;;;5051570;28;20033;-49
2022/02/28 07:27:13;;;;;;;26.92;11.73;;;;;;;;;;5051398;28;20062;-48
2022/02/28 07:29:39;;;;;;;23.50;12.20;;;;;;;;;;5036635;28;20477;-50
2022/02/28 07:32:05;;;;;;;26.40;11.57;;;;;;;;;;5062592;28;20111;-51
2022/02/28 07:34:31;;;;;;;24.05;12.05;;;;;;;;;;5060385;28;20130;-50
2022/02/28 07:36:58;;;;;;;22.55;10.52;;;;;;;;;;5071665;28;20138;-49
2022/02/28 07:39:24;;;;;;;25.15;12.52;;;;;;;;;;5070878;28;20078;-54
2022/02/28 07:41:50;;;;;;;24.13;11.30;;;;;;;;;;5071044;28;20539;-51
2022/02/28 07:44:16;;;;;;;23.73;11.10;;;;;;;;;;5071242;28;20024;-52
2022/02/28 07:46:43;;;;;;;22.70;12.27;;;;;;;;;;5070940;28;20017;-46
2022/02/28 07:49:09;;;;;;;22.50;11.18;;;;;;;;;;5070859;28;20419;-48
2022/02/28 07:51:35;;;;;;;22.63;10.90;;;;;;;;;;5071418;28;20381;-50
2022/02/28 07:54:01;;;;;;;21.95;11.90;;;;;;;;;;5074791;28;20029;-51
2022/02/28 07:56:27;;;;;;;22.33;10.98;;;;;;;;;;5057299;28;20489;-48
2022/02/28 07:58:53;;;;;;;23.00;11.27;;;;;;;;;;5074779;28;20115;-50
2022/02/28 08:01:19;;;;;;;20.08;10.77;;;;;;;;;;5056463;28;20078;-49
2022/02/28 08:03:45;;;;;;;27.85;12.55;;;;;;;;;;5074905;28;20404;-52
2022/02/28 08:06:11;;;;;;;22.80;11.77;;;;;;;;;;5074714;28;20052;-53
2022/02/28 08:08:37;;;;;;;21.95;10.77;;;;;;;;;;5056779;28;20028;-54
2022/02/28 08:11:03;;;;;;;22.30;11.77;;;;;;;;;;5074699;28;20032;-54
2022/02/28 08:13:29;;;;;;;23.70;10.52;;;;;;;;;;5056763;28;20476;-49
2022/02/28 08:15:57;;;;;;;24.02;10.65;;;;;;;;;;5073840;28;20031;-53
2022/02/28 08:18:23;;;;;;;21.63;10.93;;;;;;;;;;5074961;28;20028;-48
2022/02/28 08:20:49;;;;;;;24.92;11.57;;;;;;;;;;5074445;28;20021;-53
2022/02/28 08:23:16;;;;;;;22.10;10.23;;;;;;;;;;5074791;28;20024;-49
2022/02/28 08:25:44;;;;;;;22.17;10.77;;;;;;;;;;5056298;28;20017;-50
2022/02/28 08:28:10;;;;;;;;;;;;;;;;;;5075046;28;20384;-53
2022/02/28 08:30:36;;;;;;;21.88;11.10;;;;;;;;;;5073541;28;19920;-51
2022/02/28 08:33:02;;;;;;;21.30;10.65;;;;;;;;;;5075096;28;20028;-54
2022/02/28 08:35:28;;;;;;;22.42;11.57;;;;;;;;;;5074596;28;20032;-53
2022/02/28 08:37:54;;;;;;;23.52;11.10;;;;;;;;;;5074550;28;20556;-50
2022/02/28 08:40:20;;;;;;;21.95;11.32;;;;;;;;;;5073940;28;20025;-50
2022/02/28 08:42:46;;;;;;;23.50;11.57;;;;;;;;;;5074479;28;20035;-50
2022/02/28 08:45:12;;;;;;;29.05;12.95;;;;;;;;;;5073551;28;20399;-45
2022/02/28 08:47:38;;;;;;;24.30;12.02;;;;;;;;;;5074392;28;20069;-49
2022/02/28 08:50:05;;;;;;;22.90;11.60;;;;;;;;;;5073838;28;20103;-48
2022/02/28 08:52:32;;;;;;;22.85;10.77;;;;;;;;;;5074186;28;20032;-55
2022/02/28 08:54:58;;;;;;;25.10;11.60;;;;;;;;;;5073886;28;20020;-51
2022/02/28 08:57:24;;;;;;;23.67;11.02;;;;;;;;;;5056225;28;20127;-54
2022/02/28 08:59:50;;;;;;;22.48;11.02;;;;;;;;;;5072893;28;20036;-52
2022/02/28 09:02:16;;;;;;;20.02;10.57;;;;;;;;;;5073926;28;20119;-52
2022/02/28 09:04:42;;;;;;;21.17;10.48;;;;;;;;;;5055277;28;20088;-56
2022/02/28 09:07:08;;;;;;;25.58;11.07;;;;;;;;;;5055805;28;20103;-56
2022/02/28 09:09:34;;;;;;;24.05;11.38;;;;;;;;;;5073849;28;20488;-52
2022/02/28 09:12:00;;;;;;;25.13;11.85;;;;;;;;;;5073829;28;20220;-52
2022/02/28 09:14:26;;;;;;;20.77;10.13;;;;;;;;;;5072751;28;20494;-54
2022/02/28 09:16:52;;;;;;;21.77;12.07;;;;;;;;;;5055220;28;20598;-63
2022/02/28 09:19:19;;;;;;;20.73;9.93;;;;;;;;;;4716857;28;10000410;-59
2022/02/28 09:21:45;;;;;;;24.08;11.25;;;;;;;;;;5048087;28;20425;-59
2022/02/28 09:24:11;;;;;;;25.50;10.98;;;;;;;;;;5059899;28;20033;-56
2022/02/28 09:26:37;;;;;;;23.63;10.27;;;;;;;;;;5053079;28;20078;-62
2022/02/28 09:29:05;;;;;;;23.77;10.55;;;;;;;;;;5070575;28;20025;-61
2022/02/28 09:31:31;;;;;;;20.25;9.90;;;;;;;;;;5070643;28;20029;-60
2022/02/28 09:33:57;;;;;;;21.65;10.48;;;;;;;;;;5070495;28;20033;-60
2022/02/28 09:36:23;;;;;;;22.00;10.65;;;;;;;;;;5070598;28;20024;-61
2022/02/28 09:38:49;;;;;;;20.58;10.68;;;;;;;;;;5070305;28;20025;-60
2022/02/28 09:41:18;;;;;;;23.42;10.10;;;;;;;;;;5070669;28;20028;-62
2022/02/28 09:43:44;;;;;;;20.85;10.98;;;;;;;;;;5070664;28;20483;-60
2022/02/28 09:46:10;;;;;;;21.98;10.75;;;;;;;;;;5052528;28;20052;-51
2022/02/28 09:48:37;;;;;;;23.15;11.27;;;;;;;;;;5070330;28;20044;-53
2022/02/28 09:51:03;;;;;;;23.40;11.38;;;;;;;;;;5070228;28;20170;-52
2022/02/28 09:53:29;;;;;;;21.85;10.15;;;;;;;;;;5070154;28;20020;-53
2022/02/28 09:55:56;;;;;;;22.48;11.40;;;;;;;;;;5071237;28;20024;-52
2022/02/28 09:58:28;;;;;;;23.15;11.30;;;;;;;;;;5070884;28;20273;-53
2022/02/28 10:00:56;;;;;;;21.48;10.90;;;;;;;;;;5070432;28;20028;-48
2022/02/28 10:03:22;;;;;;;25.47;11.30;;;;;;;;;;5070327;28;20079;-51
2022/02/28 10:05:48;;;;;;;25.55;11.55;;;;;;;;;;5069897;28;20282;-53
2022/02/28 10:08:15;;;;;;;24.33;11.77;;;;;;;;;;5070239;28;20102;-50
2022/02/28 10:10:44;;;;;;;25.48;11.60;;;;;;;;;;5070065;28;20051;-52
2022/02/28 10:13:10;;;;;;;21.23;11.25;;;;;;;;;;5069837;28;20031;-54
2022/02/28 10:15:36;;;;;;;22.48;11.07;;;;;;;;;;5069408;28;20112;-54
2022/02/28 10:18:04;;;;;;;20.77;10.77;;;;;;;;;;5051975;28;20100;-53
2022/02/28 10:20:32;;;;;;;20.50;11.55;;;;;;;;;;5069352;28;20094;-52
2022/02/28 10:22:58;;;;;;;19.15;10.65;;;;;;;;;;5053403;28;20039;-55
2022/02/28 10:25:26;;;;;;;20.75;11.75;;;;;;;;;;5071721;28;20020;-50
2022/02/28 10:28:10;;;;;;;18.00;10.10;;;;;;;;;;5071229;28;20047;-48
2022/02/28 10:30:36;;;;;;;20.80;10.27;;;;;;;;;;5071327;28;20027;-50
2022/02/28 10:33:13;;;;;;;22.70;10.63;;;;;;;;;;5074798;28;20338;-55
2022/02/28 10:36:10;;;;;;;23.50;10.73;;;;;;;;;;5061754;28;20021;-51
2022/02/28 10:38:36;;;;;;;20.48;10.02;;;;;;;;;;5055560;28;20032;-54
2022/02/28 10:41:04;;;;;;;22.90;10.20;;;;;;;;;;5051005;28;20033;-55
2022/02/28 10:43:30;;;;;;;;;;;;;;;;;;5047354;28;20473;-51
2022/02/28 10:45:57;;;;;;;21.27;11.48;;;;;;;;;;5046583;28;19911;-52
2022/02/28 10:48:24;;;;;;;24.92;14.77;;;;;;;;;;5046867;28;20032;-60
2022/02/28 10:50:51;;;;;;;21.50;11.55;;;;;;;;;;5047143;28;20029;-59
2022/02/28 10:53:21;;;;;;;19.35;11.13;;;;;;;;;;5050644;28;20032;-59
2022/02/28 10:55:48;;;;;;;21.48;10.45;;;;;;;;;;5050354;28;20017;-58
2022/02/28 10:58:15;;;;;;;21.77;10.75;;;;;;;;;;5049640;28;20025;-59
2022/02/28 11:00:50;;;;;;;19.40;10.32;;;;;;;;;;5051004;28;20029;-59
2022/02/28 11:03:17;;;;;;;20.73;12.10;;;;;;;;;;5050662;28;20086;-59
2022/02/28 11:05:49;;;;;;;20.30;11.23;;;;;;;;;;5061960;28;20384;-56
2022/02/28 11:08:19;;;;;;;19.15;10.65;;;;;;;;;;5053425;28;20093;-58
2022/02/28 11:10:45;;;;;;;21.60;10.82;;;;;;;;;;5052854;28;20019;-59
2022/02/28 11:13:12;;;;;;;18.70;10.70;;;8.10;75.80;;;;;;5071344;28;20032;-58
2022/02/28 11:15:38;;;;;;;19.52;10.35;;;8.90;95.10;;;;;;5052898;28;20389;-58
2022/02/28 11:18:03;;;;;;;19.42;11.10;;;9.40;94.50;;;;;;5070400;28;20034;-59
2022/02/28 11:20:29;;;;;;;20.70;11.35;;;10.30;94.10;;;;;;5071091;28;20024;-61
2022/02/28 11:22:55;;;;;;;21.45;11.02;;;11.20;92.60;;;;;;5071289;28;20662;-59
2022/02/28 11:25:21;;;;;;;21.10;11.30;;;11.80;91.40;;;;;;5070652;28;20041;-59
2022/02/28 11:27:49;;;;;;;23.65;11.90;;;;;;;;;;5071243;28;20691;-60
2022/02/28 11:30:23;;;;;;;21.88;11.82;;;13.20;87.80;;;;;;5070532;28;20024;-60
2022/02/28 11:32:57;;;;;;;19.23;11.40;;;13.60;83.60;;;;;;5053323;28;20044;-59
2022/02/28 11:35:37;;;;;;;18.90;11.20;;;14.50;81.80;;;;;;5053304;28;20555;-59
2022/02/28 11:38:30;;;;;;;19.52;11.93;;;15.40;77.50;;;;;;5071500;28;20056;-58
2022/02/28 11:40:58;;;;;;;23.23;12.23;;;15.50;76.40;;;;;;5063264;28;20135;-62
2022/02/28 11:43:28;;;;;;;19.80;12.18;;;15.90;72.60;;;;;;5070980;28;20392;-60
2022/02/28 11:45:55;;;;;;;20.55;12.90;;;16.30;71.00;;;;;;5070196;28;20035;-61
2022/02/28 11:48:26;;;;;;;17.85;12.07;;;16.80;68.90;;;;;;5065235;28;20488;-61
2022/02/28 11:51:01;;;;;;;21.15;12.95;;;16.60;68.60;;;;;;5070256;28;20027;-58
2022/02/28 11:53:46;;;;;;;21.90;13.00;;;16.80;66.30;;;;;;5071197;28;20115;-59
2022/02/28 11:56:18;;;;;;;19.80;13.38;;;17.00;66.30;;;;;;5052581;28;20111;-60
2022/02/28 11:58:46;;;;;;;19.73;13.23;;;16.90;63.60;;;;;;5071132;28;20028;-60
2022/02/28 12:01:13;;;;;;;22.17;13.65;;;16.90;63.40;;;;;;5070383;28;20039;-60
2022/02/28 12:03:49;;;;;;;18.77;13.77;;;17.10;63.50;;;;;;5071238;28;20025;-60
2022/02/28 12:06:49;;;;;;;18.75;12.95;;;17.20;61.70;;;;;;5071234;28;20028;-61
2022/02/28 12:09:39;;;;;;;21.60;14.32;;;17.70;61.90;;;;;;5070796;28;20033;-59
2022/02/28 12:12:16;;;;;;;20.08;13.10;;;17.60;60.40;;;;;;5070863;28;20028;-55
2022/02/28 12:14:56;;;;;;;21.42;14.40;;;17.20;60.00;;;;;;5067933;28;20104;-53
2022/02/28 12:17:31;;;;;;;18.50;13.07;;;17.60;61.00;;;;;;5069862;28;20024;-60
2022/02/28 12:20:18;;;;;;;19.17;12.73;;;18.10;59.40;;;;;;5069717;28;20075;-53
2022/02/28 12:22:53;;;;;;;25.95;15.25;;;17.60;59.60;;;;;;5069873;28;20029;-54
2022/02/28 12:25:37;;;;;;;20.48;14.63;;;17.90;59.50;;;;;;4702516;28;9999813;-50
2022/02/28 12:28:21;;;;;;;21.45;15.50;;;18.60;58.80;;;;;;5031605;28;20021;-49
2022/02/28 12:31:02;;;;;;;21.50;13.63;;;18.50;58.00;;;;;;5049760;28;20104;-50
2022/02/28 12:33:33;;;;;;;19.30;12.90;;;18.80;57.80;;;;;;5050776;28;20025;-54
2022/02/28 12:36:03;;;;;;;19.63;13.27;;;18.40;58.70;;;;;;5049533;28;20021;-53
2022/02/28 12:38:31;;;;;;;20.15;12.98;;;18.10;57.30;;;;;;5051295;28;20431;-55
2022/02/28 12:41:08;;;;;;;20.08;13.38;;;18.90;57.60;;;;;;5090703;23;20083;-54
2022/02/28 12:43:34;;;;;;;19.55;13.02;;;18.80;56.00;;;;;;5074720;28;20036;-52
2022/02/28 12:46:06;;;;;;;18.52;13.07;;;18.90;56.40;;;;;;5056881;28;20047;-53
2022/02/28 12:48:32;;;;;;;20.52;12.57;;;19.00;54.20;;;;;;5075307;28;20020;-54
2022/02/28 12:51:00;;;;;;;20.23;13.18;;;19.90;56.30;;;;;;5056922;28;20074;-52
2022/02/28 12:53:31;;;;;;;20.17;13.43;;;20.00;54.20;;;;;;5074829;28;20047;-52
2022/02/28 12:56:01;;;;;;;21.65;14.57;;;20.00;53.60;;;;;;5056552;28;20027;-55
2022/02/28 12:58:32;;;;;;;21.92;13.70;;;20.40;52.20;;;;;;5074625;28;20561;-49
2022/02/28 13:01:13;;;;;;;19.50;13.18;;;20.10;53.20;;;;;;5074776;28;20121;-53
2022/02/28 13:03:41;;;;;;;30.27;24.65;;;20.40;53.30;;;;;;5073155;28;20032;-61
2022/02/28 13:06:08;;;;;;;46.33;39.15;;;20.70;54.30;;;;;;5088954;28;20031;-64
2022/02/28 13:08:36;;;;;;;21.08;14.90;;;20.60;54.10;;;;;;5094979;28;20050;-56
2022/02/28 13:11:19;;;;;;;20.35;13.73;;;20.20;53.70;;;;;;5094236;28;20415;-55
2022/02/28 13:13:53;;;;;;;19.85;14.38;;;20.30;52.70;;;;;;5076191;28;20043;-54
2022/02/28 13:16:19;;;;;;;18.67;13.20;;;20.60;53.50;;;;;;5075871;28;20028;-55
2022/02/28 13:18:45;;;;;;;20.27;13.07;;;20.60;53.10;;;;;;5094578;28;20085;-57
2022/02/28 13:21:11;;;;;;;20.63;14.05;;;21.10;51.60;;;;;;5076112;28;20111;-58
2022/02/28 13:23:39;;;;;;;25.38;14.68;;;21.50;51.20;;;;;;5094186;28;20020;-55
2022/02/28 13:26:05;;;;;;;18.75;13.88;;;22.10;51.40;;;;;;5094207;28;20021;-56
2022/02/28 13:28:34;;;;;;;19.73;13.70;;;21.20;50.80;;;;;;5094315;28;20035;-55
2022/02/28 13:31:00;;;;;;;18.45;12.73;;;21.40;49.30;;;;;;5093183;28;20048;-54
2022/02/28 13:33:27;;;;;;;19.55;13.13;;;21.60;50.50;;;;;;5094115;28;20111;-56
2022/02/28 13:35:54;;;;;;;19.50;13.98;;;21.00;49.40;;;;;;5075628;28;20032;-55
2022/02/28 13:38:20;;;;;;;18.80;13.85;;;21.00;50.40;;;;;;5075867;28;20080;-51
2022/02/28 13:40:47;;;;;;;20.83;13.32;;;21.10;49.40;;;;;;5093371;28;20116;-51
2022/02/28 13:43:14;;;;;;;19.77;13.20;;;20.90;49.80;;;;;;5093866;28;20024;-54
2022/02/28 13:45:44;;;;;;;19.25;14.15;;;21.10;49.90;;;;;;5091884;28;20024;-54
2022/02/28 13:48:22;;;;;;;23.90;16.75;;;20.80;50.10;;;;;;5094074;28;20495;-49
2022/02/28 13:50:49;;;;;;;23.43;14.40;;;20.40;49.70;;;;;;5092338;28;20032;-56
2022/02/28 13:53:15;;;;;;;20.00;13.55;;;20.80;49.80;;;;;;5093626;28;20024;-54
2022/02/28 13:55:43;;;;;;;19.45;13.00;;;20.70;49.30;;;;;;5093212;28;20363;-57
2022/02/28 13:58:10;;;;;;;19.08;13.38;;;20.20;49.70;;;;;;5075913;28;20078;-51